createdAt,value
2022-08-23T00:00:22.720Z,20.65
2022-08-23T00:03:48.944Z,20.67
2022-08-23T00:07:12.837Z,20.72
2022-08-23T00:10:34.417Z,20.81
2022-08-23T00:13:59.964Z,20.71
2022-08-23T00:17:33.630Z,20.70
2022-08-23T00:20:56.828Z,20.85
2022-08-23T00:24:18.935Z,20.98
2022-08-23T00:27:40.671Z,21.03
2022-08-23T00:31:07.194Z,21.05
2022-08-23T00:34:29.370Z,21.12
2022-08-23T00:38:33.136Z,20.71
2022-08-23T00:41:33.888Z,20.81
2022-08-23T00:45:19.439Z,20.87
2022-08-23T00:48:41.922Z,20.88
2022-08-23T00:52:36.607Z,20.71
2022-08-23T00:56:03.335Z,20.51
2022-08-23T00:59:25.191Z,20.55
2022-08-23T01:02:51.987Z,20.74
2022-08-23T01:06:22.408Z,20.79
2022-08-23T01:09:48.502Z,20.95
2022-08-23T01:13:15.430Z,21.02
2022-08-23T01:16:47.513Z,21.05
2022-08-23T01:20:19.389Z,21.13
2022-08-23T01:23:51.747Z,21.15
2022-08-23T01:27:16.251Z,20.98
2022-08-23T01:30:41.047Z,20.94
2022-08-23T01:34:08.649Z,20.98
2022-08-23T01:37:36.457Z,21.12
2022-08-23T01:41:02.802Z,21.16
2022-08-23T01:44:24.532Z,21.13
2022-08-23T01:47:51.353Z,21.18
2022-08-23T01:51:16.804Z,21.12
2022-08-23T01:54:38.393Z,20.94
2022-08-23T01:58:02.152Z,21.05
2022-08-23T02:01:23.858Z,21.13
2022-08-23T02:04:53.041Z,21.22
2022-08-23T02:08:33.439Z,21.15
2022-08-23T02:11:55.220Z,21.03
2022-08-23T02:15:17.390Z,21.13
2022-08-23T02:18:39.102Z,21.30
2022-08-23T02:22:00.890Z,21.25
2022-08-23T02:25:22.976Z,21.18
2022-08-23T02:28:44.968Z,21.19
2022-08-23T02:32:07.752Z,20.87
2022-08-23T02:35:33.687Z,20.40
2022-08-23T02:38:59.027Z,20.39
2022-08-23T02:42:23.285Z,20.61
2022-08-23T02:45:47.800Z,20.14
2022-08-23T02:49:09.795Z,20.23
2022-08-23T02:52:31.394Z,20.30
2022-08-23T02:55:52.926Z,20.30
2022-08-23T02:59:17.601Z,20.54
2022-08-23T03:02:41.950Z,20.52
2022-08-23T03:06:25.335Z,20.64
2022-08-23T03:09:50.341Z,20.75
2022-08-23T03:13:12.177Z,20.78
2022-08-23T03:16:36.031Z,20.48
2022-08-23T03:20:00.078Z,20.44
2022-08-23T03:23:27.013Z,20.54
2022-08-23T03:26:51.612Z,20.64
2022-08-23T03:30:17.796Z,20.63
2022-08-23T03:33:41.297Z,20.78
2022-08-23T03:37:05.862Z,20.87
2022-08-23T03:40:27.555Z,20.98
2022-08-23T03:43:49.172Z,20.74
2022-08-23T03:47:10.854Z,20.55
2022-08-23T03:50:32.478Z,20.70
2022-08-23T03:53:54.297Z,20.60
2022-08-23T03:57:15.888Z,20.67
2022-08-23T04:00:40.975Z,20.81
2022-08-23T04:04:02.833Z,20.88
2022-08-23T04:07:26.732Z,20.70
2022-08-23T04:10:48.298Z,20.31
2022-08-23T04:14:10.377Z,20.51
2022-08-23T04:17:34.127Z,20.47
2022-08-23T04:20:56.204Z,20.63
2022-08-23T04:24:19.073Z,20.27
2022-08-23T04:27:41.832Z,20.48
2022-08-23T04:31:06.977Z,20.44
2022-08-23T04:34:33.815Z,20.60
2022-08-23T04:37:55.668Z,20.45
2022-08-23T04:41:36.801Z,20.31
2022-08-23T04:45:01.701Z,20.54
2022-08-23T04:48:25.999Z,20.75
2022-08-23T04:51:53.590Z,20.51
2022-08-23T04:55:16.421Z,20.30
2022-08-23T04:58:41.218Z,20.24
2022-08-23T05:02:02.828Z,20.50
2022-08-23T05:05:27.731Z,20.67
2022-08-23T05:08:49.376Z,20.24
2022-08-23T05:12:14.850Z,20.13
2022-08-23T05:15:36.460Z,20.19
2022-08-23T05:18:59.470Z,20.03
2022-08-23T05:22:26.228Z,20.09
2022-08-23T05:25:51.590Z,20.40
2022-08-23T05:29:15.431Z,20.31
2022-08-23T05:32:39.549Z,20.51
2022-08-23T05:36:02.101Z,20.77
2022-08-23T05:39:26.579Z,20.79
2022-08-23T05:42:59.745Z,20.88
2022-08-23T05:46:21.997Z,20.98
2022-08-23T05:49:48.353Z,21.09
2022-08-23T05:53:12.852Z,20.87
2022-08-23T05:56:39.104Z,20.47
2022-08-23T06:00:00.687Z,20.61
2022-08-23T06:03:22.446Z,20.77
2022-08-23T06:06:44.491Z,20.68
2022-08-23T06:10:06.630Z,20.30
2022-08-23T06:13:31.072Z,20.26
2022-08-23T06:16:56.051Z,20.30
2022-08-23T06:20:18.669Z,20.41
2022-08-23T06:23:43.630Z,20.44
2022-08-23T06:27:05.404Z,20.47
2022-08-23T06:30:27.146Z,20.65
2022-08-23T06:33:52.148Z,20.37
2022-08-23T06:37:18.634Z,20.41
2022-08-23T06:40:40.167Z,20.43
2022-08-23T06:44:02.051Z,20.65
2022-08-23T06:47:23.795Z,20.71
2022-08-23T06:50:47.978Z,20.79
2022-08-23T06:54:13.337Z,20.79
2022-08-23T06:57:37.379Z,20.88
2022-08-23T07:01:44.546Z,20.91
2022-08-23T07:05:06.818Z,21.13
2022-08-23T07:08:34.915Z,20.82
2022-08-23T07:11:57.132Z,21.18
2022-08-23T07:15:18.946Z,21.18
2022-08-23T07:18:42.983Z,20.96
2022-08-23T07:22:05.987Z,21.15
2022-08-23T07:25:30.104Z,21.36
2022-08-23T07:28:51.939Z,21.46
2022-08-23T07:32:13.676Z,21.73
2022-08-23T07:35:40.070Z,22.00
2022-08-23T07:39:02.449Z,21.98
2022-08-23T07:42:29.076Z,21.80
2022-08-23T07:45:51.672Z,22.13
2022-08-23T07:49:14.184Z,22.40
2022-08-23T07:52:38.317Z,23.03
2022-08-23T07:56:03.700Z,23.48
2022-08-23T07:59:25.257Z,23.77
2022-08-23T08:02:46.842Z,23.29
2022-08-23T08:06:12.621Z,23.11
2022-08-23T08:09:36.482Z,23.04
2022-08-23T08:12:58.547Z,22.45
2022-08-23T08:16:30.815Z,22.15
2022-08-23T08:19:52.459Z,22.45
2022-08-23T08:23:16.200Z,22.81
2022-08-23T08:26:41.646Z,23.55
2022-08-23T08:30:05.201Z,23.42
2022-08-23T08:33:30.983Z,23.28
2022-08-23T08:36:58.496Z,23.77
2022-08-23T08:40:29.925Z,24.24
2022-08-23T08:43:51.414Z,23.99
2022-08-23T08:47:34.824Z,24.35
2022-08-23T08:51:03.636Z,24.11
2022-08-23T08:54:31.800Z,24.24
2022-08-23T08:57:55.146Z,24.86
2022-08-23T09:01:21.753Z,24.58
2022-08-23T09:04:46.377Z,24.67
2022-08-23T09:08:11.103Z,24.17
2022-08-23T09:12:18.023Z,24.37
2022-08-23T09:15:58.637Z,24.80
2022-08-23T09:19:25.146Z,25.07
2022-08-23T09:22:58.361Z,25.05
2022-08-23T09:26:24.971Z,25.03
2022-08-23T09:29:58.329Z,24.83
2022-08-23T09:33:26.099Z,24.51
2022-08-23T09:37:05.468Z,24.57
2022-08-23T09:40:41.850Z,24.69
2022-08-23T09:44:13.700Z,24.86
2022-08-23T09:47:44.849Z,24.96
2022-08-23T09:51:32.217Z,25.07
2022-08-23T09:55:20.954Z,24.45
2022-08-23T09:58:51.032Z,24.58
2022-08-23T10:02:27.552Z,24.58
2022-08-23T10:05:55.705Z,24.31
2022-08-23T10:09:26.181Z,24.17
2022-08-23T10:12:47.885Z,24.27
2022-08-23T10:16:31.256Z,24.25
2022-08-23T10:20:16.140Z,24.57
2022-08-23T10:24:05.643Z,24.69
2022-08-23T10:27:54.876Z,24.57
2022-08-23T10:31:39.745Z,24.35
2022-08-23T10:35:53.508Z,25.03
2022-08-23T10:39:27.269Z,24.78
2022-08-23T10:43:04.452Z,24.59
2022-08-23T10:46:30.889Z,24.75
2022-08-23T10:49:53.832Z,25.00
2022-08-23T10:53:17.997Z,25.26
2022-08-23T10:56:44.466Z,25.58
2022-08-23T11:00:27.371Z,25.22
2022-08-23T11:04:15.031Z,24.73
2022-08-23T11:07:43.339Z,24.68
2022-08-23T11:11:05.073Z,24.51
2022-08-23T11:14:32.384Z,24.62
2022-08-23T11:18:00.835Z,24.73
2022-08-23T11:21:25.540Z,24.96
2022-08-23T11:24:59.301Z,24.93
2022-08-23T11:28:23.533Z,25.16
2022-08-23T11:32:01.296Z,25.33
2022-08-23T11:35:47.868Z,25.64
2022-08-23T11:39:13.275Z,26.09
2022-08-23T11:42:50.154Z,26.64
2022-08-23T11:46:25.806Z,26.08
2022-08-23T11:50:42.306Z,25.43
2022-08-23T11:54:24.037Z,25.20
2022-08-23T11:58:10.822Z,25.60
2022-08-23T12:01:36.532Z,25.47
2022-08-23T12:05:01.805Z,25.48
2022-08-23T12:08:55.683Z,25.86
2022-08-23T12:12:27.025Z,26.85
2022-08-23T12:16:17.497Z,27.18
2022-08-23T12:19:46.711Z,26.41
2022-08-23T12:23:21.648Z,26.09
2022-08-23T12:26:59.121Z,25.75
2022-08-23T12:30:36.249Z,25.91
2022-08-23T12:34:15.002Z,25.99
2022-08-23T12:38:14.064Z,25.89
2022-08-23T12:42:15.943Z,25.81
2022-08-23T12:45:45.580Z,25.61
2022-08-23T12:49:12.575Z,25.85
2022-08-23T12:52:38.576Z,26.09
2022-08-23T12:56:10.140Z,25.92
2022-08-23T12:59:41.891Z,25.84
2022-08-23T13:03:16.903Z,25.89
2022-08-23T13:06:49.539Z,25.91
2022-08-23T13:10:12.176Z,25.60
2022-08-23T13:13:38.143Z,25.50
2022-08-23T13:17:22.326Z,25.28
2022-08-23T13:20:46.483Z,25.38
2022-08-23T13:24:38.049Z,25.50
2022-08-23T13:28:23.918Z,25.67
2022-08-23T13:32:02.619Z,25.81
2022-08-23T13:35:37.754Z,25.54
2022-08-23T13:39:08.217Z,25.44
2022-08-23T13:42:33.989Z,25.34
2022-08-23T13:45:58.544Z,25.44
2022-08-23T13:49:24.430Z,25.41
2022-08-23T13:53:11.384Z,25.60
2022-08-23T13:56:32.294Z,25.86
2022-08-23T13:59:58.642Z,26.20
2022-08-23T14:03:20.544Z,26.30
2022-08-23T14:06:42.099Z,26.09
2022-08-23T14:10:10.449Z,26.02
2022-08-23T14:13:33.638Z,26.03
2022-08-23T14:17:02.074Z,26.22
2022-08-23T14:20:43.836Z,26.13
2022-08-23T14:24:10.477Z,26.10
2022-08-23T14:27:32.985Z,25.71
2022-08-23T14:30:56.895Z,25.47
2022-08-23T14:34:21.520Z,25.34
2022-08-23T14:41:27.505Z,25.44
2022-08-23T14:44:51.231Z,25.48
2022-08-23T14:48:12.882Z,25.57
2022-08-23T14:51:43.230Z,25.51
2022-08-23T14:55:09.575Z,25.47
2022-08-23T14:58:35.430Z,25.62
2022-08-23T15:01:57.675Z,25.65
2022-08-23T15:05:19.557Z,25.64
2022-08-23T15:08:41.553Z,25.41
2022-08-23T15:15:45.151Z,25.43
2022-08-23T15:19:11.960Z,25.61
2022-08-23T15:22:33.487Z,25.72
2022-08-23T15:26:06.216Z,25.74
2022-08-23T15:29:28.068Z,25.64
2022-08-23T15:32:56.504Z,25.54
2022-08-23T15:36:21.440Z,25.61
2022-08-23T15:39:46.670Z,25.48
2022-08-23T15:43:08.362Z,25.50
2022-08-23T15:46:30.260Z,25.34
2022-08-23T15:49:54.218Z,25.30
2022-08-23T15:53:16.413Z,25.27
2022-08-23T15:56:46.812Z,25.23
2022-08-23T16:00:11.069Z,25.43
2022-08-23T16:03:33.025Z,25.50
2022-08-23T16:07:00.724Z,25.50
2022-08-23T16:10:22.622Z,25.47
2022-08-23T16:13:48.834Z,25.23
2022-08-23T16:17:12.931Z,25.07
2022-08-23T16:20:34.555Z,25.12
2022-08-23T16:23:58.045Z,25.06
2022-08-23T16:27:43.102Z,24.88
2022-08-23T16:31:04.753Z,24.59
2022-08-23T16:34:26.662Z,24.57
2022-08-23T16:37:48.316Z,24.52
2022-08-23T16:41:12.548Z,24.71
2022-08-23T16:44:34.818Z,24.79
2022-08-23T16:47:56.407Z,24.85
2022-08-23T16:51:21.670Z,24.89
2022-08-23T16:54:43.627Z,24.72
2022-08-23T16:58:07.938Z,24.85
2022-08-23T17:01:44.886Z,24.82
2022-08-23T17:05:09.713Z,24.88
2022-08-23T17:08:32.034Z,24.79
2022-08-23T17:11:58.564Z,24.88
2022-08-23T17:15:24.709Z,24.92
2022-08-23T17:18:51.135Z,24.88
2022-08-23T17:22:16.090Z,24.86
2022-08-23T17:25:38.779Z,24.75
2022-08-23T17:29:01.676Z,24.72
2022-08-23T17:32:23.524Z,24.49
2022-08-23T17:35:45.587Z,24.57
2022-08-23T17:39:10.070Z,24.62
2022-08-23T17:42:34.367Z,24.59
2022-08-23T17:45:56.042Z,24.21
2022-08-23T17:49:22.981Z,24.22
2022-08-23T17:52:45.648Z,24.35
2022-08-23T17:56:12.179Z,24.30
2022-08-23T17:59:37.811Z,24.32
2022-08-23T18:02:59.776Z,24.37
2022-08-23T18:06:22.058Z,24.40
2022-08-23T18:09:48.326Z,24.48
2022-08-23T18:13:12.567Z,24.28
2022-08-23T18:16:36.810Z,24.28
2022-08-23T18:19:59.036Z,24.28
2022-08-23T18:23:21.690Z,24.16
2022-08-23T18:27:02.856Z,24.32
2022-08-23T18:30:25.831Z,24.13
2022-08-23T18:33:47.532Z,23.87
2022-08-23T18:37:12.311Z,23.76
2022-08-23T18:40:45.613Z,23.70
2022-08-23T18:44:10.207Z,23.65
2022-08-23T18:47:31.791Z,23.14
2022-08-23T18:50:54.502Z,22.98
2022-08-23T18:54:17.183Z,23.15
2022-08-23T18:57:40.818Z,23.22
2022-08-23T19:01:06.415Z,23.15
2022-08-23T19:04:29.941Z,23.22
2022-08-23T19:07:51.515Z,23.22
2022-08-23T19:11:13.853Z,22.97
2022-08-23T19:15:03.684Z,23.03
2022-08-23T19:18:27.750Z,22.98
2022-08-23T19:21:50.272Z,22.97
2022-08-23T19:25:14.328Z,23.12
2022-08-23T19:28:40.037Z,23.01
2022-08-23T19:32:04.049Z,22.80
2022-08-23T19:35:25.788Z,22.88
2022-08-23T19:38:52.108Z,22.60
2022-08-23T19:42:14.380Z,22.39
2022-08-23T19:45:38.666Z,22.38
2022-08-23T19:49:02.736Z,22.56
2022-08-23T19:52:28.800Z,22.55
2022-08-23T19:55:50.650Z,22.52
2022-08-23T19:59:20.361Z,22.71
2022-08-23T20:02:44.579Z,22.66
2022-08-23T20:06:09.616Z,22.50
2022-08-23T20:09:36.087Z,22.52
2022-08-23T20:12:57.704Z,22.60
2022-08-23T20:16:19.882Z,22.69
2022-08-23T20:19:41.957Z,22.74
2022-08-23T20:23:24.506Z,22.66
2022-08-23T20:26:48.508Z,22.67
2022-08-23T20:30:13.028Z,22.39
2022-08-23T20:33:34.638Z,22.56
2022-08-23T20:36:56.565Z,22.45
2022-08-23T20:40:18.573Z,22.31
2022-08-23T20:43:41.200Z,22.38
2022-08-23T20:47:07.129Z,22.35
2022-08-23T20:50:28.726Z,22.29
2022-08-23T20:53:50.324Z,22.22
2022-08-23T20:57:14.196Z,22.23
2022-08-23T21:00:35.814Z,22.15
2022-08-23T21:03:57.531Z,21.97
2022-08-23T21:07:19.273Z,21.98
2022-08-23T21:10:41.672Z,21.78
2022-08-23T21:14:09.417Z,21.77
2022-08-23T21:17:31.181Z,21.90
2022-08-23T21:20:52.966Z,21.98
2022-08-23T21:24:17.435Z,22.06
2022-08-23T21:27:39.079Z,22.06
2022-08-23T21:31:09.476Z,22.16
2022-08-23T21:34:31.159Z,22.13
2022-08-23T21:37:52.697Z,22.08
2022-08-23T21:41:40.891Z,22.04
2022-08-23T21:45:06.624Z,21.81
2022-08-23T21:48:28.202Z,21.91
2022-08-23T21:51:53.527Z,21.94
2022-08-23T21:55:15.954Z,21.92
2022-08-23T21:58:39.757Z,21.97
2022-08-23T22:02:01.399Z,21.92
2022-08-23T22:05:25.517Z,21.91
2022-08-23T22:08:49.611Z,21.95
2022-08-23T22:12:11.135Z,21.94
2022-08-23T22:15:35.539Z,21.90
2022-08-23T22:18:59.173Z,21.92
2022-08-23T22:22:21.416Z,21.90
2022-08-23T22:25:43.066Z,21.68
2022-08-23T22:29:07.648Z,21.61
2022-08-23T22:32:31.509Z,21.56
2022-08-23T22:35:53.615Z,21.63
2022-08-23T22:39:15.284Z,21.74
2022-08-23T22:42:39.255Z,21.71
2022-08-23T22:46:04.937Z,21.75
2022-08-23T22:49:29.180Z,21.83
2022-08-23T22:52:52.627Z,21.65
2022-08-23T22:56:22.142Z,21.46
2022-08-23T22:59:43.923Z,21.40
2022-08-23T23:03:08.212Z,21.49
2022-08-23T23:06:32.421Z,21.47
2022-08-23T23:09:56.921Z,21.73
2022-08-23T23:13:18.440Z,21.75
2022-08-23T23:16:40.682Z,21.65
2022-08-23T23:20:21.510Z,21.67
2022-08-23T23:23:45.329Z,21.54
2022-08-23T23:27:10.844Z,21.45
2022-08-23T23:30:32.513Z,21.39
2022-08-23T23:33:54.134Z,21.51
2022-08-23T23:37:18.508Z,21.53
2022-08-23T23:40:41.051Z,21.51
2022-08-23T23:44:02.897Z,21.46
2022-08-23T23:47:24.450Z,21.40
2022-08-23T23:50:46.756Z,21.42
2022-08-23T23:54:10.845Z,21.37
2022-08-23T23:57:38.420Z,21.25
